KGTR/GTR METAR and TAF weather

Enter ICAO airport designator
Station Type Date Time Source
KGTR METAR 2019/06/19 02:56 UTC NOAA

KGTR 190256Z AUTO 19005KT 10SM CLR 23/22 A2987 RMK AO2 SLP121 T02280222 53007


Station Type Date Time Source
KGTR Decoded METAR 2019/06/19 02:56 UTC NOAA

Columbus/West Point/Starkville, Golden Triangle Regional Airport, MS, United States (KGTR) 33-27N 088-35W
Jun 18, 2019 - 10:56 PM EDT / 2019.06.19 0256 UTC
Wind: from the S (190 degrees) at 6 MPH (5 KT):0
Visibility: 10 mile(s):0
Sky conditions: clear
Temperature: 73.0 F (22.8 C)
Dew Point: 72.0 F (22.2 C)
Relative Humidity: 96%
Pressure (altimeter): 29.87 in. Hg (1011 hPa)
Pressure tendency: 0.02 inches (0.7 hPa) higher than three hours ago
ob: KGTR 190256Z AUTO 19005KT 10SM CLR 23/22 A2987 RMK AO2 SLP121 T02280222 53007
cycle: 3

Station Type Date Time Source
KGTR TAF 2019/06/18 18:42 UTC NOAA

TAF KGTR 181738Z 1818/1918 24008KT 4SM -SHRA BR VCTS BKN025CB OVC110
FM182000 23007KT P6SM VCSH BKN050
FM190000 23005KT P6SM SCT120

Example: see airport list